createdAt,value
2023-05-12T00:01:00.685Z,101304.97
2023-05-12T00:04:03.209Z,101313.72
2023-05-12T00:07:07.172Z,101309.50
2023-05-12T00:10:09.914Z,101310.81
2023-05-12T00:13:12.337Z,101317.47
2023-05-12T00:16:15.952Z,101314.38
2023-05-12T00:19:22.131Z,101298.50
2023-05-12T00:22:24.559Z,101318.88
2023-05-12T00:25:26.888Z,101309.91
2023-05-12T00:28:29.350Z,101312.28
2023-05-12T00:31:31.897Z,101304.03
2023-05-12T00:34:34.487Z,101311.13
2023-05-12T00:37:36.861Z,101310.09
2023-05-12T00:40:39.680Z,101312.44
2023-05-12T00:43:42.676Z,101317.72
2023-05-12T00:46:45.033Z,101317.25
2023-05-12T00:49:47.325Z,101317.56
2023-05-12T00:52:50.242Z,101323.59
2023-05-12T00:55:53.758Z,101324.78
2023-05-12T00:58:56.068Z,101328.22
2023-05-12T01:01:58.530Z,101328.34
2023-05-12T01:05:02.036Z,101325.63
2023-05-12T01:08:04.853Z,101328.34
2023-05-12T01:11:07.218Z,101331.00
2023-05-12T01:14:09.934Z,101327.03
2023-05-12T01:17:13.946Z,101327.50
2023-05-12T01:20:18.344Z,101330.97
2023-05-12T01:23:21.045Z,101323.09
2023-05-12T01:26:23.658Z,101328.16
2023-05-12T01:29:26.734Z,101333.03
2023-05-12T01:32:30.628Z,101338.38
2023-05-12T01:35:33.789Z,101338.81
2023-05-12T01:38:38.226Z,101326.72
2023-05-12T01:41:41.180Z,101343.13
2023-05-12T01:44:44.437Z,101338.97
2023-05-12T01:47:46.962Z,101346.56
2023-05-12T01:50:49.380Z,101338.41
2023-05-12T01:53:55.883Z,101348.06
2023-05-12T01:56:58.563Z,101354.13
2023-05-12T02:00:01.475Z,101352.09
2023-05-12T02:03:05.016Z,101302.56
2023-05-12T02:06:08.206Z,101351.91
2023-05-12T02:09:11.601Z,101351.44
2023-05-12T02:12:14.202Z,101355.53
2023-05-12T02:15:16.759Z,101348.84
2023-05-12T02:18:21.835Z,101350.16
2023-05-12T02:21:24.365Z,101358.06
2023-05-12T02:24:28.879Z,101362.41
2023-05-12T02:27:32.643Z,101364.88
2023-05-12T02:30:35.450Z,101364.44
2023-05-12T02:33:38.991Z,101356.63
2023-05-12T02:36:41.416Z,101359.59
2023-05-12T02:39:43.761Z,101366.06
2023-05-12T02:42:46.124Z,101362.53
2023-05-12T02:45:48.548Z,101356.88
2023-05-12T02:48:51.025Z,101362.75
2023-05-12T02:51:55.282Z,101358.31
2023-05-12T02:54:57.747Z,101363.84
2023-05-12T02:58:00.108Z,101351.06
2023-05-12T03:01:10.161Z,101361.34
2023-05-12T03:04:13.886Z,101360.78
2023-05-12T03:07:16.649Z,101364.53
2023-05-12T03:10:19.701Z,101354.84
2023-05-12T03:13:22.550Z,101358.88
2023-05-12T03:16:25.973Z,101356.94
2023-05-12T03:19:28.553Z,101360.34
2023-05-12T03:22:31.205Z,101361.97
2023-05-12T03:25:35.183Z,101366.78
2023-05-12T03:28:37.765Z,101361.09
2023-05-12T03:31:40.227Z,101361.47
2023-05-12T03:34:42.693Z,101374.91
2023-05-12T03:37:45.096Z,101368.44
2023-05-12T03:40:52.828Z,101358.84
2023-05-12T03:43:56.232Z,101371.47
2023-05-12T03:46:58.620Z,101354.94
2023-05-12T03:50:01.692Z,101378.16
2023-05-12T03:53:05.108Z,101377.50
2023-05-12T03:56:09.962Z,101374.28
2023-05-12T03:59:12.426Z,101380.03
2023-05-12T04:02:14.948Z,101389.63
2023-05-12T04:05:17.471Z,101384.63
2023-05-12T04:08:19.846Z,101399.91
2023-05-12T04:11:22.387Z,101396.41
2023-05-12T04:14:35.327Z,101376.63
2023-05-12T04:17:42.388Z,101395.03
2023-05-12T04:20:45.616Z,101396.47
2023-05-12T04:23:48.034Z,101394.97
2023-05-12T04:26:50.633Z,101398.28
2023-05-12T04:29:53.016Z,101397.78
2023-05-12T04:32:57.274Z,101396.06
2023-05-12T04:35:59.965Z,101401.75
2023-05-12T04:39:02.559Z,101400.88
2023-05-12T04:42:05.209Z,101406.09
2023-05-12T04:45:09.719Z,101412.00
2023-05-12T04:48:12.510Z,101414.53
2023-05-12T04:51:16.863Z,101418.44
2023-05-12T04:54:19.376Z,101398.56
2023-05-12T04:57:21.854Z,101417.09
2023-05-12T05:00:24.456Z,101413.78
2023-05-12T05:03:27.353Z,101413.97
2023-05-12T05:06:30.928Z,101420.69
2023-05-12T05:09:36.433Z,101417.00
2023-05-12T05:12:39.331Z,101429.53
2023-05-12T05:15:42.684Z,101418.34
2023-05-12T05:18:48.152Z,101419.91
2023-05-12T05:21:50.846Z,101416.84
2023-05-12T05:24:53.226Z,101416.28
2023-05-12T05:27:56.123Z,101418.09
2023-05-12T05:30:58.561Z,101424.72
2023-05-12T05:34:01.218Z,101414.50
2023-05-12T05:37:04.248Z,101420.78
2023-05-12T05:40:07.873Z,101423.28
2023-05-12T05:43:10.355Z,101432.56
2023-05-12T05:46:12.854Z,101432.56
2023-05-12T05:49:15.802Z,101425.09
2023-05-12T05:52:18.404Z,101429.31
2023-05-12T05:55:21.469Z,101432.88
2023-05-12T05:58:25.233Z,101419.25
2023-05-12T06:01:27.546Z,101437.97
2023-05-12T06:04:30.268Z,101439.06
2023-05-12T06:07:33.944Z,101446.13
2023-05-12T06:10:36.330Z,101448.81
2023-05-12T06:13:38.661Z,101453.63
2023-05-12T06:16:41.117Z,101443.16
2023-05-12T06:19:47.800Z,101436.97
2023-05-12T06:22:50.570Z,101459.00
2023-05-12T06:25:53.215Z,101459.59
2023-05-12T06:28:56.363Z,101457.44
2023-05-12T06:31:58.833Z,101464.16
2023-05-12T06:35:01.202Z,101461.47
2023-05-12T06:38:03.635Z,101460.22
2023-05-12T06:41:05.988Z,101471.06
2023-05-12T06:44:12.771Z,101472.19
2023-05-12T06:47:15.188Z,101481.00
2023-05-12T06:50:17.680Z,101485.75
2023-05-12T06:53:19.975Z,101478.41
2023-05-12T06:56:23.356Z,101485.38
2023-05-12T06:59:27.769Z,101477.06
2023-05-12T07:02:30.921Z,101480.66
2023-05-12T07:05:33.521Z,101480.81
2023-05-12T07:08:36.002Z,101482.06
2023-05-12T07:11:38.388Z,101471.31
2023-05-12T07:14:40.754Z,101483.66
2023-05-12T07:17:43.152Z,101477.84
2023-05-12T07:20:46.741Z,101480.66
2023-05-12T07:23:49.217Z,101478.09
2023-05-12T07:26:52.169Z,101479.81
2023-05-12T07:29:54.552Z,101484.31
2023-05-12T07:32:57.895Z,101479.81
2023-05-12T07:36:00.290Z,101484.50
2023-05-12T07:39:02.716Z,101479.28
2023-05-12T07:42:05.362Z,101489.81
2023-05-12T07:45:08.280Z,101485.53
2023-05-12T07:48:13.513Z,101481.22
2023-05-12T07:51:15.840Z,101488.06
2023-05-12T07:54:19.590Z,101473.94
2023-05-12T07:57:21.930Z,101500.97
2023-05-12T08:00:24.408Z,101471.72
2023-05-12T08:03:27.345Z,101486.53
2023-05-12T08:06:30.045Z,101473.19
2023-05-12T08:09:32.531Z,101480.22
2023-05-12T08:12:34.916Z,101469.25
2023-05-12T08:15:37.405Z,101476.63
2023-05-12T08:18:39.959Z,101482.59
2023-05-12T08:21:42.319Z,101477.63
2023-05-12T08:24:44.811Z,101476.34
2023-05-12T08:27:47.197Z,101475.22
2023-05-12T08:30:49.627Z,101472.72
2023-05-12T08:34:02.718Z,101468.06
2023-05-12T08:37:12.388Z,101485.19
2023-05-12T08:40:18.202Z,101482.31
2023-05-12T08:43:30.209Z,101485.75
2023-05-12T08:46:32.782Z,101469.69
2023-05-12T08:49:36.839Z,101465.19
2023-05-12T08:52:39.468Z,101471.09
2023-05-12T08:55:58.367Z,101458.88
2023-05-12T08:59:10.120Z,101472.69
2023-05-12T09:02:12.380Z,101464.81
2023-05-12T09:05:14.785Z,101467.66
2023-05-12T09:08:17.240Z,101458.16
2023-05-12T09:11:22.099Z,101475.03
2023-05-12T09:14:26.245Z,101469.22
2023-05-12T09:17:28.756Z,101464.78
2023-05-12T09:20:32.251Z,101467.91
2023-05-12T09:23:34.841Z,101464.22
2023-05-12T09:26:56.123Z,101467.09
2023-05-12T09:29:59.909Z,101470.59
2023-05-12T09:33:12.529Z,101465.66
2023-05-12T09:36:24.713Z,101463.88
2023-05-12T09:39:28.584Z,101469.66
2023-05-12T09:42:32.644Z,101455.56
2023-05-12T09:45:36.846Z,101464.41
2023-05-12T09:48:39.369Z,101449.59
2023-05-12T09:51:41.999Z,101469.75
2023-05-12T09:54:44.340Z,101460.34
2023-05-12T09:57:47.425Z,101463.72
2023-05-12T10:01:12.977Z,101469.81
2023-05-12T10:04:13.097Z,101474.28
2023-05-12T10:07:17.521Z,101469.56
2023-05-12T10:10:20.730Z,101462.41
2023-05-12T10:13:23.809Z,101464.06
2023-05-12T10:16:29.040Z,101448.91
2023-05-12T10:19:31.697Z,101462.03
2023-05-12T10:22:35.273Z,101451.72
2023-05-12T10:25:37.834Z,101457.84
2023-05-12T10:28:40.158Z,101449.16
2023-05-12T10:31:45.408Z,101449.50
2023-05-12T10:34:48.331Z,101448.25
2023-05-12T10:37:50.930Z,101447.25
2023-05-12T10:41:01.380Z,101444.97
2023-05-12T10:44:03.814Z,101438.84
2023-05-12T10:47:15.568Z,101438.53
2023-05-12T10:50:30.688Z,101416.84
2023-05-12T10:53:48.241Z,101431.69
2023-05-12T10:56:53.019Z,101427.28
2023-05-12T11:00:00.787Z,101432.44
2023-05-12T11:03:09.938Z,101433.13
2023-05-12T11:06:19.885Z,101428.09
2023-05-12T11:09:22.603Z,101425.16
2023-05-12T11:12:26.868Z,101433.78
2023-05-12T11:15:30.586Z,101427.56
2023-05-12T11:18:32.904Z,101410.47
2023-05-12T11:21:36.055Z,101423.16
2023-05-12T11:24:40.822Z,101425.97
2023-05-12T11:27:53.445Z,101418.25
2023-05-12T11:30:55.937Z,101414.22
2023-05-12T11:34:13.206Z,101418.63
2023-05-12T11:37:16.053Z,101419.31
2023-05-12T11:40:20.695Z,101409.81
2023-05-12T11:43:23.174Z,101421.06
2023-05-12T11:46:29.526Z,101407.97
2023-05-12T11:49:32.946Z,101413.91
2023-05-12T11:52:35.300Z,101425.47
2023-05-12T11:55:37.719Z,101418.47
2023-05-12T11:58:40.197Z,101411.16
2023-05-12T12:01:46.944Z,101417.66
2023-05-12T12:04:49.390Z,101422.03
2023-05-12T12:07:52.000Z,101418.13
2023-05-12T12:10:54.378Z,101417.50
2023-05-12T12:13:57.856Z,101422.22
2023-05-12T12:17:00.516Z,101412.06
2023-05-12T12:20:03.466Z,101422.91
2023-05-12T12:23:05.839Z,101407.72
2023-05-12T12:26:08.196Z,101426.47
2023-05-12T12:29:10.714Z,101415.22
2023-05-12T12:32:13.191Z,101410.16
2023-05-12T12:35:15.788Z,101402.75
2023-05-12T12:38:18.257Z,101392.41
2023-05-12T12:41:20.865Z,101398.53
2023-05-12T12:44:23.306Z,101399.13
2023-05-12T12:47:25.870Z,101406.13
2023-05-12T12:50:28.376Z,101387.03
2023-05-12T12:53:30.847Z,101402.34
2023-05-12T12:56:33.147Z,101387.72
2023-05-12T12:59:35.668Z,101392.75
2023-05-12T13:02:38.794Z,101394.69
2023-05-12T13:05:41.609Z,101384.06
2023-05-12T13:08:44.015Z,101369.34
2023-05-12T13:11:47.029Z,101369.03
2023-05-12T13:14:49.583Z,101372.59
2023-05-12T13:17:52.392Z,101371.16
2023-05-12T13:20:55.352Z,101361.31
2023-05-12T13:23:57.733Z,101373.97
2023-05-12T13:27:00.339Z,101356.66
2023-05-12T13:30:05.007Z,101371.84
2023-05-12T13:33:07.457Z,101363.03
2023-05-12T13:36:09.889Z,101364.53
2023-05-12T13:39:12.812Z,101358.03
2023-05-12T13:42:15.122Z,101361.16
2023-05-12T13:45:18.350Z,101353.69
2023-05-12T13:48:21.984Z,101360.81
2023-05-12T13:51:24.426Z,101369.81
2023-05-12T13:54:26.735Z,101369.50
2023-05-12T13:57:29.122Z,101358.72
2023-05-12T14:00:31.523Z,101355.66
2023-05-12T14:03:34.737Z,101356.19
2023-05-12T14:06:37.101Z,101359.28
2023-05-12T14:09:39.750Z,101343.44
2023-05-12T14:12:42.960Z,101339.78
2023-05-12T14:15:49.277Z,101350.69
2023-05-12T14:18:52.744Z,101344.88
2023-05-12T14:21:55.262Z,101347.72
2023-05-12T14:24:57.925Z,101339.38
2023-05-12T14:28:00.381Z,101347.41
2023-05-12T14:31:03.641Z,101345.78
2023-05-12T14:34:06.002Z,101348.88
2023-05-12T14:37:08.350Z,101356.59
2023-05-12T14:40:12.827Z,101359.25
2023-05-12T14:43:15.928Z,101354.84
2023-05-12T14:46:18.302Z,101353.69
2023-05-12T14:49:22.114Z,101347.00
2023-05-12T14:52:24.608Z,101362.56
2023-05-12T14:55:28.362Z,101355.41
2023-05-12T14:58:30.991Z,101353.03
2023-05-12T15:01:33.568Z,101349.19
2023-05-12T15:04:35.927Z,101351.94
2023-05-12T15:07:38.632Z,101351.94
2023-05-12T15:10:41.024Z,101363.00
2023-05-12T15:13:43.427Z,101355.69
2023-05-12T15:16:46.222Z,101356.78
2023-05-12T15:19:48.687Z,101349.75
2023-05-12T15:22:52.371Z,101355.41
2023-05-12T15:25:54.629Z,101355.22
2023-05-12T15:28:56.974Z,101344.53
2023-05-12T15:31:59.664Z,101348.38
2023-05-12T15:35:02.078Z,101344.31
2023-05-12T15:38:04.619Z,101337.16
2023-05-12T15:41:06.925Z,101351.63
2023-05-12T15:44:09.462Z,101353.72
2023-05-12T15:47:11.770Z,101345.50
2023-05-12T15:50:19.772Z,101348.06
2023-05-12T15:53:22.435Z,101338.84
2023-05-12T15:56:24.919Z,101343.84
2023-05-12T15:59:27.311Z,101339.13
2023-05-12T16:02:29.709Z,101337.66
2023-05-12T16:05:34.196Z,101341.75
2023-05-12T16:08:36.498Z,101339.66
2023-05-12T16:11:38.927Z,101340.59
2023-05-12T16:14:41.322Z,101344.94
2023-05-12T16:17:43.727Z,101338.38
2023-05-12T16:20:47.559Z,101347.16
2023-05-12T16:23:49.928Z,101340.59
2023-05-12T16:26:52.179Z,101350.66
2023-05-12T16:29:55.037Z,101349.16
2023-05-12T16:32:57.629Z,101357.00
2023-05-12T16:36:00.032Z,101353.94
2023-05-12T16:39:02.953Z,101351.47
2023-05-12T16:42:06.103Z,101352.94
2023-05-12T16:45:11.077Z,101348.22
2023-05-12T16:48:13.599Z,101347.72
2023-05-12T16:51:16.048Z,101349.53
2023-05-12T16:54:18.663Z,101351.81
2023-05-12T16:57:21.211Z,101350.97
2023-05-12T17:00:23.814Z,101350.63
2023-05-12T17:03:26.203Z,101350.00
2023-05-12T17:06:32.053Z,101350.16
2023-05-12T17:09:34.316Z,101356.94
2023-05-12T17:12:37.111Z,101354.13
2023-05-12T17:15:40.779Z,101353.31
2023-05-12T17:21:49.041Z,101358.78
2023-05-12T17:24:51.548Z,101357.03
2023-05-12T17:27:55.002Z,101367.06
2023-05-12T17:30:58.461Z,101365.69
2023-05-12T17:34:01.383Z,101356.94
2023-05-12T17:37:06.145Z,101363.63
2023-05-12T17:40:09.853Z,101372.00
2023-05-12T17:43:13.625Z,101364.16
2023-05-12T17:46:17.003Z,101374.81
2023-05-12T17:49:19.790Z,101371.78
2023-05-12T17:52:22.407Z,101376.09
2023-05-12T17:55:25.504Z,101380.69
2023-05-12T17:58:29.969Z,101371.38
2023-05-12T18:01:35.525Z,101379.94
2023-05-12T18:04:38.553Z,101380.91
2023-05-12T18:07:41.663Z,101381.97
2023-05-12T18:10:44.774Z,101381.91
2023-05-12T18:13:47.655Z,101371.34
2023-05-12T18:16:50.229Z,101377.09
2023-05-12T18:19:52.911Z,101386.69
2023-05-12T18:22:55.390Z,101391.63
2023-05-12T18:25:58.142Z,101388.09
2023-05-12T18:29:00.900Z,101384.28
2023-05-12T18:32:03.930Z,101400.03
2023-05-12T18:35:07.337Z,101385.59
2023-05-12T18:38:09.650Z,101396.50
2023-05-12T18:41:12.585Z,101405.81
2023-05-12T18:44:14.937Z,101408.94
2023-05-12T18:47:17.495Z,101418.38
2023-05-12T18:50:20.576Z,101411.63
2023-05-12T18:53:23.337Z,101421.94
2023-05-12T18:56:26.122Z,101430.59
2023-05-12T18:59:29.713Z,101417.56
2023-05-12T19:02:33.758Z,101429.97
2023-05-12T19:05:37.240Z,101445.69
2023-05-12T19:08:42.066Z,101439.03
2023-05-12T19:11:46.564Z,101444.06
2023-05-12T19:14:50.108Z,101444.97
2023-05-12T19:17:53.886Z,101444.16
2023-05-12T19:20:57.864Z,101449.28
2023-05-12T19:24:02.787Z,101448.44
2023-05-12T19:27:05.962Z,101452.03
2023-05-12T19:30:08.896Z,101432.34
2023-05-12T19:33:11.451Z,101457.03
2023-05-12T19:36:14.164Z,101449.69
2023-05-12T19:39:17.032Z,101460.19
2023-05-12T19:42:20.058Z,101464.00
2023-05-12T19:45:23.599Z,101461.84
2023-05-12T19:48:26.598Z,101464.09
2023-05-12T19:51:30.131Z,101468.50
2023-05-12T19:54:33.606Z,101460.28
2023-05-12T19:57:38.030Z,101455.09
2023-05-12T20:00:41.385Z,101459.75
2023-05-12T20:03:45.175Z,101461.97
2023-05-12T20:06:48.034Z,101469.63
2023-05-12T20:09:50.404Z,101471.53
2023-05-12T20:12:53.588Z,101460.25
2023-05-12T20:15:57.157Z,101471.72
2023-05-12T20:19:02.502Z,101469.44
2023-05-12T20:22:06.550Z,101470.41
2023-05-12T20:25:12.703Z,101467.72
2023-05-12T20:28:16.976Z,101473.91
2023-05-12T20:31:20.169Z,101480.69
2023-05-12T20:34:22.625Z,101475.41
2023-05-12T20:37:25.012Z,101477.31
2023-05-12T20:40:27.572Z,101471.59
2023-05-12T20:43:29.924Z,101470.81
2023-05-12T20:46:33.942Z,101465.06
2023-05-12T20:49:37.464Z,101476.03
2023-05-12T20:52:41.354Z,101482.81
2023-05-12T20:55:44.023Z,101475.22
2023-05-12T20:58:46.426Z,101472.22
2023-05-12T21:01:48.822Z,101470.84
2023-05-12T21:04:51.563Z,101474.41
2023-05-12T21:07:53.940Z,101480.75
2023-05-12T21:10:56.566Z,101483.47
2023-05-12T21:13:58.974Z,101486.19
2023-05-12T21:17:01.578Z,101476.94
2023-05-12T21:20:04.401Z,101486.63
2023-05-12T21:23:09.535Z,101483.06
2023-05-12T21:26:12.726Z,101487.25
2023-05-12T21:29:15.084Z,101489.19
2023-05-12T21:32:17.496Z,101485.13
2023-05-12T21:35:20.114Z,101498.22
2023-05-12T21:38:22.562Z,101490.13
2023-05-12T21:41:25.083Z,101489.19
2023-05-12T21:44:27.530Z,101494.94
2023-05-12T21:47:29.942Z,101489.88
2023-05-12T21:50:32.510Z,101495.09
2023-05-12T21:53:35.073Z,101495.94
2023-05-12T21:56:37.669Z,101506.06
2023-05-12T21:59:40.161Z,101497.25
2023-05-12T22:02:43.278Z,101510.44
2023-05-12T22:05:45.763Z,101499.06
2023-05-12T22:08:48.334Z,101504.53
2023-05-12T22:11:50.728Z,101506.28
2023-05-12T22:14:53.318Z,101507.22
2023-05-12T22:17:55.704Z,101489.84
2023-05-12T22:20:58.203Z,101506.78
2023-05-12T22:24:00.603Z,101500.78
2023-05-12T22:27:03.065Z,101506.31
2023-05-12T22:30:06.121Z,101503.19
2023-05-12T22:33:08.880Z,101508.16
2023-05-12T22:36:11.611Z,101502.69
2023-05-12T22:39:14.804Z,101507.38
2023-05-12T22:42:17.213Z,101499.91
2023-05-12T22:45:20.509Z,101508.41
2023-05-12T22:48:23.563Z,101510.50
2023-05-12T22:51:26.022Z,101509.53
2023-05-12T22:54:28.487Z,101510.91
2023-05-12T22:57:30.930Z,101504.38
2023-05-12T23:00:33.412Z,101508.09
2023-05-12T23:03:35.945Z,101515.28
2023-05-12T23:06:38.290Z,101514.59
2023-05-12T23:09:40.591Z,101514.00
2023-05-12T23:12:43.767Z,101505.22
2023-05-12T23:15:46.236Z,101519.69
2023-05-12T23:18:49.362Z,101519.00
2023-05-12T23:21:52.008Z,101511.06
2023-05-12T23:24:55.635Z,101514.84
2023-05-12T23:27:58.137Z,101495.63
2023-05-12T23:31:00.593Z,101519.22
2023-05-12T23:34:02.935Z,101508.97
2023-05-12T23:37:05.533Z,101511.84
2023-05-12T23:40:08.728Z,101518.22
2023-05-12T23:43:11.047Z,101520.84
2023-05-12T23:46:13.449Z,101511.38
2023-05-12T23:49:16.060Z,101507.72
2023-05-12T23:52:18.421Z,101506.06
2023-05-12T23:55:23.991Z,101508.09
2023-05-12T23:58:26.843Z,101508.41
